createdAt,value
2018-06-25T00:00:39.463Z,13.20
2018-06-25T00:05:41.604Z,13.20
2018-06-25T00:08:11.487Z,13.20
2018-06-25T00:10:43.831Z,13.20
2018-06-25T00:13:12.659Z,13.20
2018-06-25T00:15:43.799Z,13.20
2018-06-25T00:18:12.735Z,13.20
2018-06-25T00:20:41.687Z,13.20
2018-06-25T00:23:11.671Z,13.20
2018-06-25T00:25:40.552Z,13.10
2018-06-25T00:28:09.464Z,13.10
2018-06-25T00:30:38.227Z,13.10
2018-06-25T00:33:10.247Z,13.10
2018-06-25T00:35:39.433Z,13.10
2018-06-25T00:38:09.435Z,13.00
2018-06-25T00:40:38.527Z,13.00
2018-06-25T00:43:07.815Z,13.00
2018-06-25T00:45:38.665Z,12.90
2018-06-25T00:48:12.767Z,12.90
2018-06-25T00:50:42.370Z,12.90
2018-06-25T00:53:18.431Z,12.80
2018-06-25T00:55:48.567Z,12.80
2018-06-25T00:58:18.467Z,12.70
2018-06-25T01:00:47.319Z,12.70
2018-06-25T01:03:24.083Z,12.60
2018-06-25T01:05:52.901Z,12.60
2018-06-25T01:08:24.451Z,12.50
2018-06-25T01:10:54.231Z,12.50
2018-06-25T01:13:24.055Z,12.40
2018-06-25T01:15:56.477Z,12.50
2018-06-25T01:18:26.015Z,12.40
2018-06-25T01:20:55.907Z,12.40
2018-06-25T01:23:24.775Z,12.40
2018-06-25T01:25:55.567Z,12.40
2018-06-25T01:30:57.978Z,12.40
2018-06-25T01:33:28.294Z,12.30
2018-06-25T01:36:00.979Z,12.30
2018-06-25T01:38:32.679Z,12.20
2018-06-25T01:41:01.523Z,12.20
2018-06-25T01:43:32.395Z,12.10
2018-06-25T01:46:01.276Z,12.00
2018-06-25T01:48:32.299Z,12.00
2018-06-25T01:51:03.202Z,11.90
2018-06-25T01:53:33.491Z,11.90
2018-06-25T01:56:06.275Z,11.80
2018-06-25T01:58:38.340Z,11.80
2018-06-25T02:01:08.315Z,11.70
2018-06-25T02:06:09.036Z,11.70
2018-06-25T02:08:39.360Z,11.60
2018-06-25T02:11:09.248Z,11.70
2018-06-25T02:13:38.099Z,11.60
2018-06-25T02:16:10.596Z,11.60
2018-06-25T02:18:39.367Z,11.60
2018-06-25T02:21:11.947Z,11.50
2018-06-25T02:23:41.135Z,11.50
2018-06-25T02:26:10.611Z,11.40
2018-06-25T02:28:39.906Z,11.40
2018-06-25T02:31:10.291Z,11.30
2018-06-25T02:33:39.198Z,11.20
2018-06-25T02:36:08.196Z,11.10
2018-06-25T02:38:37.990Z,11.00
2018-06-25T02:41:06.827Z,10.90
2018-06-25T02:43:37.680Z,10.80
2018-06-25T02:46:11.103Z,10.80
2018-06-25T02:48:45.223Z,10.80
2018-06-25T02:51:16.017Z,10.80
2018-06-25T02:53:48.727Z,10.70
2018-06-25T02:56:17.920Z,10.70
2018-06-25T02:58:49.719Z,10.70
2018-06-25T03:01:19.119Z,10.70
2018-06-25T03:03:48.967Z,10.80
2018-06-25T03:06:17.943Z,10.80
2018-06-25T03:08:48.911Z,10.80
2018-06-25T03:11:27.859Z,10.90
2018-06-25T03:14:01.031Z,11.00
2018-06-25T03:16:31.547Z,11.00
2018-06-25T03:19:06.272Z,11.10
2018-06-25T03:21:35.195Z,11.20
2018-06-25T03:24:05.357Z,11.20
2018-06-25T03:29:05.599Z,11.30
2018-06-25T03:34:08.395Z,11.40
2018-06-25T03:36:38.603Z,11.40
2018-06-25T03:39:11.479Z,11.50
2018-06-25T03:41:47.815Z,11.60
2018-06-25T03:44:24.579Z,11.70
2018-06-25T03:46:57.460Z,11.80
2018-06-25T03:49:29.518Z,11.90
2018-06-25T03:51:58.383Z,12.00
2018-06-25T03:54:29.147Z,12.00
2018-06-25T03:57:01.219Z,12.00
2018-06-25T03:59:33.070Z,12.10
2018-06-25T04:02:03.859Z,12.10
2018-06-25T04:07:22.963Z,12.20
2018-06-25T04:09:51.870Z,12.20
2018-06-25T04:12:24.440Z,12.20
2018-06-25T04:14:54.599Z,12.40
2018-06-25T04:17:24.660Z,12.50
2018-06-25T04:19:53.447Z,12.60
2018-06-25T04:22:22.315Z,12.70
2018-06-25T04:24:51.210Z,12.80
2018-06-25T04:27:19.975Z,12.70
2018-06-25T04:29:54.495Z,12.70
2018-06-25T04:32:23.286Z,12.70
2018-06-25T04:34:56.298Z,12.70
2018-06-25T04:37:27.130Z,12.70
2018-06-25T04:40:03.490Z,12.80
2018-06-25T04:42:37.967Z,12.90
2018-06-25T04:45:12.876Z,12.90
2018-06-25T04:47:43.723Z,13.00
2018-06-25T04:50:23.462Z,13.00
2018-06-25T04:52:56.819Z,13.10
2018-06-25T04:55:26.652Z,13.20
2018-06-25T05:00:37.434Z,13.50
2018-06-25T05:03:06.526Z,13.50
2018-06-25T05:05:37.315Z,13.50
2018-06-25T05:08:06.078Z,13.40
2018-06-25T05:10:38.886Z,13.30
2018-06-25T05:13:07.730Z,13.30
2018-06-25T05:15:37.458Z,13.30
2018-06-25T05:18:08.187Z,13.30
2018-06-25T05:20:37.038Z,13.30
2018-06-25T05:23:09.506Z,13.40
2018-06-25T05:28:13.466Z,13.90
2018-06-25T05:30:42.230Z,14.10
2018-06-25T05:33:16.559Z,14.10
2018-06-25T05:35:45.338Z,14.20
2018-06-25T05:38:21.722Z,14.30
2018-06-25T05:40:54.238Z,14.40
2018-06-25T05:43:23.073Z,14.40
2018-06-25T05:45:55.746Z,14.30
2018-06-25T05:48:24.559Z,14.40
2018-06-25T05:50:57.250Z,14.60
2018-06-25T05:53:26.007Z,14.80
2018-06-25T05:55:57.478Z,14.90
2018-06-25T05:58:27.264Z,14.60
2018-06-25T06:00:58.058Z,14.40
2018-06-25T06:03:26.894Z,14.50
2018-06-25T06:06:01.350Z,14.50
2018-06-25T06:08:30.194Z,14.80
2018-06-25T06:10:59.706Z,15.20
2018-06-25T06:13:29.974Z,15.50
2018-06-25T06:16:04.462Z,15.50
2018-06-25T06:18:34.318Z,15.60
2018-06-25T06:21:03.099Z,15.80
2018-06-25T06:23:33.970Z,16.20
2018-06-25T06:26:02.772Z,16.60
2018-06-25T06:28:34.366Z,17.00
2018-06-25T06:31:04.370Z,17.20
2018-06-25T06:33:36.930Z,17.30
2018-06-25T06:36:05.814Z,17.00
2018-06-25T06:38:34.678Z,16.40
2018-06-25T06:41:03.478Z,16.50
2018-06-25T06:43:33.274Z,16.90
2018-06-25T06:46:18.082Z,17.30
2018-06-25T06:48:52.050Z,17.60
2018-06-25T06:51:20.826Z,18.20
2018-06-25T06:53:52.739Z,18.80
2018-06-25T06:56:26.610Z,19.40
2018-06-25T06:58:56.502Z,19.60
2018-06-25T07:01:36.170Z,19.20
2018-06-25T07:06:35.447Z,19.00
2018-06-25T07:09:09.750Z,19.10
2018-06-25T07:11:38.502Z,18.80
2018-06-25T07:14:08.347Z,17.90
2018-06-25T07:16:37.782Z,17.40
2018-06-25T07:19:13.182Z,16.80
2018-06-25T07:21:45.767Z,16.60
2018-06-25T07:24:20.270Z,16.70
2018-06-25T07:26:56.243Z,17.10
2018-06-25T07:32:04.311Z,17.70
2018-06-25T07:34:38.428Z,18.50
2018-06-25T07:37:08.246Z,18.50
2018-06-25T07:42:07.478Z,18.30
2018-06-25T07:44:38.304Z,18.20
2018-06-25T07:47:07.161Z,17.90
2018-06-25T07:49:35.831Z,17.40
2018-06-25T07:52:04.622Z,16.90
2018-06-25T07:54:37.143Z,16.70
2018-06-25T07:57:13.426Z,16.50
2018-06-25T07:59:43.227Z,16.50
2018-06-25T08:02:15.466Z,16.40
2018-06-25T08:04:49.934Z,16.50
2018-06-25T08:07:18.695Z,16.90
2018-06-25T08:09:47.589Z,17.30
2018-06-25T08:12:21.650Z,17.20
2018-06-25T08:14:54.610Z,17.30
2018-06-25T08:17:23.438Z,16.90
2018-06-25T08:20:15.829Z,17.30
2018-06-25T08:22:49.306Z,17.50
2018-06-25T08:25:20.102Z,17.80
2018-06-25T08:27:58.554Z,18.30
2018-06-25T08:33:06.370Z,19.20
2018-06-25T08:35:37.116Z,19.90
2018-06-25T08:38:06.517Z,20.20
2018-06-25T08:40:36.285Z,20.00
2018-06-25T08:43:08.262Z,20.20
2018-06-25T08:45:36.962Z,19.60
2018-06-25T08:48:12.449Z,20.00
2018-06-25T08:53:10.934Z,22.80
2018-06-25T08:55:40.897Z,23.50
2018-06-25T08:58:14.847Z,23.80
2018-06-25T09:00:43.602Z,24.10
2018-06-25T09:03:15.964Z,24.00
2018-06-25T09:06:07.918Z,24.30
2018-06-25T09:08:38.710Z,24.50
2018-06-25T09:11:08.534Z,24.90
2018-06-25T09:13:37.362Z,25.10
2018-06-25T09:16:10.410Z,24.30
2018-06-25T09:18:43.258Z,23.10
2018-06-25T09:21:16.098Z,24.30
2018-06-25T09:23:48.133Z,26.80
2018-06-25T09:26:16.913Z,27.20
2018-06-25T09:29:02.038Z,26.10
2018-06-25T09:31:32.678Z,23.80
2018-06-25T09:34:06.646Z,22.30
2018-06-25T09:36:35.478Z,22.20
2018-06-25T09:39:13.086Z,21.60
2018-06-25T09:41:47.432Z,21.30
2018-06-25T09:44:26.190Z,21.30
2018-06-25T09:47:07.650Z,21.70
2018-06-25T09:49:47.110Z,22.40
2018-06-25T09:52:22.562Z,21.10
2018-06-25T09:54:54.667Z,21.60
2018-06-25T09:57:26.486Z,21.40
2018-06-25T10:00:03.062Z,21.00
2018-06-25T10:02:36.450Z,21.40
2018-06-25T10:05:06.710Z,21.40
2018-06-25T10:07:43.522Z,20.80
2018-06-25T10:10:13.603Z,20.70
2018-06-25T10:12:42.358Z,20.80
2018-06-25T10:15:11.114Z,21.00
2018-06-25T10:17:48.254Z,21.10
2018-06-25T10:20:29.634Z,21.00
2018-06-25T10:23:00.362Z,21.00
2018-06-25T10:25:31.126Z,21.40
2018-06-25T10:30:59.278Z,21.80
2018-06-25T10:33:28.050Z,22.00
2018-06-25T10:35:56.890Z,22.00
2018-06-25T10:38:31.636Z,22.40
2018-06-25T10:41:00.410Z,22.90
2018-06-25T10:43:29.194Z,23.60
2018-06-25T10:45:57.925Z,25.60
2018-06-25T10:48:30.754Z,26.90
2018-06-25T10:51:04.666Z,28.50
2018-06-25T10:53:39.041Z,28.20
2018-06-25T10:56:07.890Z,27.40
2018-06-25T11:01:14.386Z,23.60
2018-06-25T11:03:44.161Z,22.50
2018-06-25T11:06:17.661Z,21.80
2018-06-25T11:08:57.657Z,21.90
2018-06-25T11:11:27.414Z,22.70
2018-06-25T11:14:04.390Z,21.50
2018-06-25T11:16:36.698Z,21.10
2018-06-25T11:19:23.850Z,22.10
2018-06-25T11:21:53.602Z,22.70
2018-06-25T11:24:27.125Z,21.90
2018-06-25T11:26:55.961Z,21.10
2018-06-25T11:29:35.838Z,21.10
2018-06-25T11:32:04.591Z,21.30
2018-06-25T11:34:33.554Z,21.00
2018-06-25T11:37:05.785Z,21.60
2018-06-25T11:39:46.650Z,23.00
2018-06-25T11:42:33.641Z,25.10
2018-06-25T11:45:10.662Z,27.70
2018-06-25T11:47:44.157Z,28.00
2018-06-25T11:50:26.189Z,27.60
2018-06-25T11:55:33.085Z,28.90
2018-06-25T11:58:11.476Z,29.90
2018-06-25T12:00:42.268Z,28.70
2018-06-25T12:03:12.304Z,31.60
2018-06-25T12:05:57.541Z,30.40
2018-06-25T12:08:32.724Z,27.40
2018-06-25T12:11:01.513Z,25.80
2018-06-25T12:13:30.265Z,24.50
2018-06-25T12:15:59.137Z,26.00
2018-06-25T12:18:28.909Z,29.00
2018-06-25T12:21:14.245Z,28.70
2018-06-25T12:23:47.169Z,27.40
2018-06-25T12:26:19.153Z,26.30
2018-06-25T12:28:55.417Z,25.50
2018-06-25T12:31:36.269Z,25.20
2018-06-25T12:34:05.017Z,25.10
2018-06-25T12:36:35.761Z,25.00
2018-06-25T12:39:07.793Z,25.40
2018-06-25T12:41:36.560Z,25.80
2018-06-25T12:44:10.981Z,26.30
2018-06-25T12:46:46.756Z,26.20
2018-06-25T12:49:16.489Z,26.00
2018-06-25T12:51:45.333Z,25.00
2018-06-25T12:54:14.173Z,24.20
2018-06-25T12:56:42.977Z,23.90
2018-06-25T12:59:13.872Z,23.80
2018-06-25T13:01:42.601Z,24.00
2018-06-25T13:04:17.600Z,23.80
2018-06-25T13:06:46.326Z,23.70
2018-06-25T13:09:18.113Z,23.40
2018-06-25T13:11:46.870Z,23.20
2018-06-25T13:14:19.157Z,23.90
2018-06-25T13:16:48.948Z,27.10
2018-06-25T13:19:18.669Z,29.20
2018-06-25T13:21:47.421Z,29.10
2018-06-25T13:24:16.236Z,26.80
2018-06-25T13:26:45.008Z,26.20
2018-06-25T13:29:13.780Z,26.90
2018-06-25T13:31:45.693Z,28.30
2018-06-25T13:34:19.582Z,30.80
2018-06-25T13:36:50.344Z,32.00
2018-06-25T13:39:19.260Z,31.40
2018-06-25T13:41:54.483Z,29.20
2018-06-25T13:44:23.355Z,27.80
2018-06-25T13:46:53.060Z,26.00
2018-06-25T13:49:26.673Z,24.70
2018-06-25T13:52:05.928Z,23.20
2018-06-25T13:54:34.699Z,22.20
2018-06-25T13:57:08.528Z,21.90
2018-06-25T13:59:39.224Z,21.80
2018-06-25T14:02:10.033Z,21.90
2018-06-25T14:04:43.157Z,22.30
2018-06-25T14:07:12.936Z,22.90
2018-06-25T14:09:46.391Z,24.40
2018-06-25T14:12:16.132Z,27.30
2018-06-25T14:14:50.648Z,27.80
2018-06-25T14:17:20.369Z,28.20
2018-06-25T14:19:54.273Z,28.70
2018-06-25T14:22:27.020Z,29.30
2018-06-25T14:27:55.261Z,30.70
2018-06-25T14:30:32.893Z,31.50
2018-06-25T14:33:04.485Z,31.80
2018-06-25T14:35:35.249Z,31.80
2018-06-25T14:40:36.493Z,31.80
2018-06-25T14:43:08.558Z,30.70
2018-06-25T14:45:43.853Z,28.70
2018-06-25T14:48:17.318Z,28.90
2018-06-25T14:53:43.753Z,31.40
2018-06-25T14:56:15.525Z,33.00
2018-06-25T14:58:46.176Z,32.90
2018-06-25T15:01:15.013Z,31.10
2018-06-25T15:03:56.144Z,29.60
2018-06-25T15:06:34.981Z,27.60
2018-06-25T15:09:09.196Z,25.30
2018-06-25T15:12:01.985Z,26.40
2018-06-25T15:14:34.340Z,25.10
2018-06-25T15:17:03.169Z,23.70
2018-06-25T15:19:34.892Z,23.00
2018-06-25T15:22:03.633Z,22.60
2018-06-25T15:24:51.604Z,22.20
2018-06-25T15:27:24.212Z,22.40
2018-06-25T15:29:52.977Z,22.90
2018-06-25T15:32:21.728Z,24.60
2018-06-25T15:34:51.484Z,24.80
2018-06-25T15:37:23.528Z,24.30
2018-06-25T15:39:52.332Z,25.40
2018-06-25T15:42:28.732Z,25.40
2018-06-25T15:45:01.082Z,24.80
2018-06-25T15:47:30.880Z,24.20
2018-06-25T15:50:00.632Z,23.90
2018-06-25T15:52:34.804Z,25.50
2018-06-25T15:55:04.548Z,28.50
2018-06-25T15:57:35.284Z,30.80
2018-06-25T16:00:05.203Z,32.20
2018-06-25T16:02:34.852Z,31.50
2018-06-25T16:05:18.156Z,31.70
2018-06-25T16:07:48.896Z,29.60
2018-06-25T16:10:19.672Z,28.70
2018-06-25T16:12:48.399Z,28.00
2018-06-25T16:15:17.228Z,27.00
2018-06-25T16:17:49.416Z,26.70
2018-06-25T16:20:21.252Z,27.10
2018-06-25T16:22:50.968Z,28.30
2018-06-25T16:25:33.728Z,28.90
2018-06-25T16:28:12.353Z,28.00
2018-06-25T16:30:42.116Z,27.00
2018-06-25T16:33:10.856Z,27.30
2018-06-25T16:35:39.692Z,27.00
2018-06-25T16:38:13.404Z,26.40
2018-06-25T16:40:46.613Z,26.60
2018-06-25T16:43:30.121Z,26.30
2018-06-25T16:46:04.111Z,24.90
2018-06-25T16:48:40.541Z,23.50
2018-06-25T16:51:10.149Z,22.50
2018-06-25T16:53:39.928Z,22.00
2018-06-25T16:56:08.764Z,22.10
2018-06-25T16:58:37.600Z,22.80
2018-06-25T17:01:11.384Z,23.00
2018-06-25T17:03:49.728Z,23.00
2018-06-25T17:06:26.532Z,22.80
2018-06-25T17:12:00.596Z,22.50
2018-06-25T17:14:34.883Z,22.30
2018-06-25T17:17:03.712Z,22.20
2018-06-25T17:19:35.884Z,21.70
2018-06-25T17:22:04.730Z,21.20
2018-06-25T17:24:35.419Z,21.00
2018-06-25T17:27:08.352Z,20.80
2018-06-25T17:29:37.095Z,21.00
2018-06-25T17:32:22.340Z,21.20
2018-06-25T17:34:57.736Z,20.80
2018-06-25T17:39:58.435Z,21.10
2018-06-25T17:42:30.217Z,21.00
2018-06-25T17:45:03.104Z,21.00
2018-06-25T17:47:34.140Z,21.30
2018-06-25T17:50:02.932Z,21.40
2018-06-25T17:52:41.876Z,21.80
2018-06-25T17:55:10.632Z,21.60
2018-06-25T18:00:16.572Z,20.80
2018-06-25T18:05:39.068Z,20.40
2018-06-25T18:08:11.395Z,20.10
2018-06-25T18:10:40.255Z,19.90
2018-06-25T18:13:12.939Z,19.60
2018-06-25T18:15:41.780Z,19.40
2018-06-25T18:18:11.659Z,19.20
2018-06-25T18:20:40.478Z,19.00
2018-06-25T18:23:10.239Z,18.80
2018-06-25T18:25:40.037Z,18.70
2018-06-25T18:30:48.859Z,18.40
2018-06-25T18:33:18.591Z,18.30
2018-06-25T18:35:48.403Z,18.10
2018-06-25T18:38:19.147Z,18.00
2018-06-25T18:41:00.155Z,18.00
2018-06-25T18:43:34.539Z,18.00
2018-06-25T18:46:04.431Z,17.90
2018-06-25T18:48:35.147Z,17.90
2018-06-25T18:51:20.203Z,17.90
2018-06-25T18:54:00.719Z,17.90
2018-06-25T18:56:32.959Z,17.90
2018-06-25T18:59:08.327Z,17.80
2018-06-25T19:01:42.479Z,17.70
2018-06-25T19:04:12.263Z,17.50
2018-06-25T19:06:42.175Z,17.40
2018-06-25T19:09:12.871Z,17.30
2018-06-25T19:11:42.724Z,17.10
2018-06-25T19:14:11.859Z,16.90
2018-06-25T19:16:40.719Z,16.70
2018-06-25T19:19:18.511Z,16.60
2018-06-25T19:21:50.476Z,16.40
2018-06-25T19:24:21.767Z,16.30
2018-06-25T19:26:55.535Z,16.30
2018-06-25T19:29:26.699Z,16.30
2018-06-25T19:31:57.498Z,16.30
2018-06-25T19:34:27.268Z,16.20
2018-06-25T19:36:56.079Z,16.20
2018-06-25T19:39:26.835Z,16.20
2018-06-25T19:41:59.428Z,16.20
2018-06-25T19:44:28.179Z,16.20
2018-06-25T19:46:57.907Z,16.20
2018-06-25T19:49:26.763Z,16.10
2018-06-25T19:51:56.511Z,16.10
2018-06-25T19:54:26.299Z,16.10
2018-06-25T19:56:57.127Z,16.00
2018-06-25T19:59:29.062Z,15.90
2018-06-25T20:01:58.879Z,15.70
2018-06-25T20:04:28.639Z,15.50
2018-06-25T20:06:57.376Z,15.40
2018-06-25T20:09:26.130Z,15.20
2018-06-25T20:11:54.887Z,15.00
2018-06-25T20:14:23.622Z,14.90
2018-06-25T20:16:52.778Z,14.70
2018-06-25T20:19:21.510Z,14.50
2018-06-25T20:21:50.310Z,14.40
2018-06-25T20:24:20.103Z,14.20
2018-06-25T20:26:48.879Z,14.10
2018-06-25T20:29:21.387Z,13.90
2018-06-25T20:31:52.227Z,13.70
2018-06-25T20:34:21.012Z,13.60
2018-06-25T20:36:51.811Z,13.40
2018-06-25T20:39:21.647Z,13.30
2018-06-25T20:41:52.472Z,13.20
2018-06-25T20:44:33.451Z,13.10
2018-06-25T20:47:02.251Z,13.10
2018-06-25T20:49:32.603Z,13.00
2018-06-25T20:52:02.112Z,12.90
2018-06-25T20:54:30.939Z,12.80
2018-06-25T20:57:04.282Z,12.70
2018-06-25T20:59:35.083Z,12.60
2018-06-25T21:02:03.887Z,12.50
2018-06-25T21:07:29.667Z,12.50
2018-06-25T21:09:58.545Z,12.40
2018-06-25T21:12:27.303Z,12.40
2018-06-25T21:15:08.942Z,12.40
2018-06-25T21:17:48.251Z,12.30
2018-06-25T21:20:17.275Z,12.30
2018-06-25T21:22:48.027Z,12.20
2018-06-25T21:25:16.864Z,12.20
2018-06-25T21:27:58.986Z,12.20
2018-06-25T21:30:34.292Z,12.20
2018-06-25T21:33:10.191Z,12.20
2018-06-25T21:35:44.011Z,12.20
2018-06-25T21:38:15.895Z,12.20
2018-06-25T21:40:44.702Z,12.20
2018-06-25T21:45:52.711Z,12.20
2018-06-25T21:48:30.795Z,12.30
2018-06-25T21:51:12.118Z,12.30
2018-06-25T21:53:45.666Z,12.30
2018-06-25T21:56:19.435Z,12.40
2018-06-25T21:58:49.230Z,12.40
2018-06-25T22:01:21.295Z,12.50
2018-06-25T22:04:00.115Z,12.70
2018-06-25T22:06:30.039Z,12.80
2018-06-25T22:09:10.922Z,12.70
2018-06-25T22:11:41.715Z,12.70
2018-06-25T22:14:11.886Z,12.60
2018-06-25T22:16:44.415Z,12.50
2018-06-25T22:19:14.227Z,12.40
2018-06-25T22:21:49.282Z,12.40
2018-06-25T22:24:23.802Z,12.40
2018-06-25T22:26:58.143Z,12.50
2018-06-25T22:29:31.378Z,12.40
2018-06-25T22:32:02.246Z,12.40
2018-06-25T22:34:32.034Z,12.40
2018-06-25T22:37:00.822Z,12.30
2018-06-25T22:39:30.662Z,12.30
2018-06-25T22:42:02.526Z,12.40
2018-06-25T22:44:32.302Z,12.40
2018-06-25T22:47:12.795Z,12.40
2018-06-25T22:49:42.562Z,12.40
2018-06-25T22:52:11.364Z,12.30
2018-06-25T22:54:41.162Z,12.10
2018-06-25T22:57:12.008Z,12.00
2018-06-25T22:59:41.826Z,11.80
2018-06-25T23:02:11.654Z,11.60
2018-06-25T23:07:14.120Z,11.50
2018-06-25T23:09:42.946Z,11.50
2018-06-25T23:12:11.806Z,11.40
2018-06-25T23:14:40.850Z,11.40
2018-06-25T23:17:09.711Z,11.30
2018-06-25T23:19:44.330Z,11.20
2018-06-25T23:22:15.258Z,11.10
2018-06-25T23:24:44.186Z,11.10
2018-06-25T23:27:21.502Z,11.00
2018-06-25T23:29:54.298Z,10.90
2018-06-25T23:32:23.106Z,10.70
2018-06-25T23:37:20.375Z,10.40
2018-06-25T23:42:18.666Z,10.20
2018-06-25T23:47:17.962Z,10.10
2018-06-25T23:49:48.822Z,10.10
2018-06-25T23:52:23.122Z,10.10
2018-06-25T23:54:55.186Z,10.10
2018-06-25T23:57:23.989Z,10.00
2018-06-25T23:59:52.790Z,10.00
